sensor_id;sensor_type;location;lat;lon;timestamp;P1;durP1;ratioP1;P2;durP2;ratioP2
63953;SDS011;50128;52.094;5.232;2022-07-22T00:01:35;9.5;;;3.4;;
63953;SDS011;50128;52.094;5.232;2022-07-22T00:03:21;9.9;;;2.8;;
63953;SDS011;50128;52.094;5.232;2022-07-22T00:05:08;9.5;;;3.7;;
63953;SDS011;50128;52.094;5.232;2022-07-22T00:06:55;10.5;;;3.1;;
63953;SDS011;50128;52.094;5.232;2022-07-22T00:08:41;9.6;;;3.7;;
63953;SDS011;50128;52.094;5.232;2022-07-22T00:10:28;9.21;;;3.5;;
63953;SDS011;50128;52.094;5.232;2022-07-22T00:14:01;9.1;;;3.4;;
63953;SDS011;50128;52.094;5.232;2022-07-22T00:15:48;8.71;;;3.4;;
63953;SDS011;50128;52.094;5.232;2022-07-22T00:17:36;9.31;;;3.3;;
63953;SDS011;50128;52.094;5.232;2022-07-22T00:19:24;8.1;;;3.2;;
63953;SDS011;50128;52.094;5.232;2022-07-22T00:21:12;10.5;;;3.8;;
63953;SDS011;50128;52.094;5.232;2022-07-22T00:22:59;8.4;;;3.5;;
63953;SDS011;50128;52.094;5.232;2022-07-22T00:26:32;9.5;;;3.6;;
63953;SDS011;50128;52.094;5.232;2022-07-22T00:28:19;8.2;;;3.0;;
63953;SDS011;50128;52.094;5.232;2022-07-22T00:30:07;9.4;;;3.4;;
63953;SDS011;50128;52.094;5.232;2022-07-22T00:31:54;8.71;;;3.6;;
63953;SDS011;50128;52.094;5.232;2022-07-22T00:33:41;11.4;;;3.3;;
63953;SDS011;50128;52.094;5.232;2022-07-22T00:37:15;10.8;;;3.5;;
63953;SDS011;50128;52.094;5.232;2022-07-22T00:39:01;10.1;;;3.3;;
63953;SDS011;50128;52.094;5.232;2022-07-22T00:40:49;10.0;;;3.2;;
63953;SDS011;50128;52.094;5.232;2022-07-22T00:42:36;8.2;;;3.2;;
63953;SDS011;50128;52.094;5.232;2022-07-22T00:44:23;7.3;;;3.2;;
63953;SDS011;50128;52.094;5.232;2022-07-22T00:46:09;11.9;;;3.4;;
63953;SDS011;50128;52.094;5.232;2022-07-22T00:49:41;9.6;;;3.1;;
63953;SDS011;50128;52.094;5.232;2022-07-22T00:51:28;8.9;;;3.4;;
63953;SDS011;50128;52.094;5.232;2022-07-22T00:53:15;9.6;;;3.1;;
63953;SDS011;50128;52.094;5.232;2022-07-22T00:55:03;8.81;;;2.9;;
63953;SDS011;50128;52.094;5.232;2022-07-22T00:56:52;8.4;;;3.3;;
63953;SDS011;50128;52.094;5.232;2022-07-22T00:58:38;7.7;;;3.0;;
63953;SDS011;50128;52.094;5.232;2022-07-22T01:02:13;7.5;;;3.1;;
63953;SDS011;50128;52.094;5.232;2022-07-22T01:04:00;8.5;;;2.7;;
63953;SDS011;50128;52.094;5.232;2022-07-22T01:05:47;8.81;;;3.1;;
63953;SDS011;50128;52.094;5.232;2022-07-22T01:07:33;8.0;;;3.2;;
63953;SDS011;50128;52.094;5.232;2022-07-22T01:09:20;9.0;;;3.1;;
63953;SDS011;50128;52.094;5.232;2022-07-22T01:11:07;10.0;;;3.4;;
63953;SDS011;50128;52.094;5.232;2022-07-22T01:14:40;11.1;;;3.6;;
63953;SDS011;50128;52.094;5.232;2022-07-22T01:16:29;7.5;;;3.1;;
63953;SDS011;50128;52.094;5.232;2022-07-22T01:18:15;8.9;;;3.5;;
63953;SDS011;50128;52.094;5.232;2022-07-22T01:20:03;9.71;;;3.3;;
63953;SDS011;50128;52.094;5.232;2022-07-22T01:21:50;7.2;;;3.1;;
63953;SDS011;50128;52.094;5.232;2022-07-22T01:25:24;8.9;;;3.4;;
63953;SDS011;50128;52.094;5.232;2022-07-22T01:27:12;10.5;;;3.1;;
63953;SDS011;50128;52.094;5.232;2022-07-22T01:28:58;7.6;;;3.3;;
63953;SDS011;50128;52.094;5.232;2022-07-22T01:30:44;7.7;;;3.3;;
63953;SDS011;50128;52.094;5.232;2022-07-22T01:32:30;6.6;;;2.8;;
63953;SDS011;50128;52.094;5.232;2022-07-22T01:34:16;7.7;;;3.2;;
63953;SDS011;50128;52.094;5.232;2022-07-22T01:37:50;7.4;;;3.2;;
63953;SDS011;50128;52.094;5.232;2022-07-22T01:39:37;7.7;;;3.2;;
63953;SDS011;50128;52.094;5.232;2022-07-22T01:41:23;9.71;;;3.3;;
63953;SDS011;50128;52.094;5.232;2022-07-22T01:43:09;7.5;;;2.8;;
63953;SDS011;50128;52.094;5.232;2022-07-22T01:44:56;7.0;;;2.7;;
63953;SDS011;50128;52.094;5.232;2022-07-22T01:46:42;9.31;;;3.2;;
63953;SDS011;50128;52.094;5.232;2022-07-22T01:50:16;7.5;;;3.1;;
63953;SDS011;50128;52.094;5.232;2022-07-22T01:52:02;7.9;;;2.8;;
63953;SDS011;50128;52.094;5.232;2022-07-22T01:53:50;7.8;;;3.0;;
63953;SDS011;50128;52.094;5.232;2022-07-22T01:55:37;6.9;;;2.9;;
63953;SDS011;50128;52.094;5.232;2022-07-22T01:57:24;8.1;;;3.0;;
63953;SDS011;50128;52.094;5.232;2022-07-22T01:59:11;5.9;;;2.5;;
63953;SDS011;50128;52.094;5.232;2022-07-22T02:02:45;7.7;;;2.8;;
63953;SDS011;50128;52.094;5.232;2022-07-22T02:04:32;8.0;;;2.5;;
63953;SDS011;50128;52.094;5.232;2022-07-22T02:06:18;8.0;;;2.6;;
63953;SDS011;50128;52.094;5.232;2022-07-22T02:08:06;8.6;;;3.0;;
63953;SDS011;50128;52.094;5.232;2022-07-22T02:09:55;6.7;;;2.7;;
63953;SDS011;50128;52.094;5.232;2022-07-22T02:13:28;6.2;;;2.31;;
63953;SDS011;50128;52.094;5.232;2022-07-22T02:15:15;7.7;;;2.6;;
63953;SDS011;50128;52.094;5.232;2022-07-22T02:17:01;9.0;;;3.1;;
63953;SDS011;50128;52.094;5.232;2022-07-22T02:18:48;7.8;;;2.7;;
63953;SDS011;50128;52.094;5.232;2022-07-22T02:20:35;5.0;;;2.5;;
63953;SDS011;50128;52.094;5.232;2022-07-22T02:22:21;6.4;;;2.8;;
63953;SDS011;50128;52.094;5.232;2022-07-22T02:25:55;6.8;;;2.8;;
63953;SDS011;50128;52.094;5.232;2022-07-22T02:27:41;5.4;;;2.7;;
63953;SDS011;50128;52.094;5.232;2022-07-22T02:29:28;8.31;;;2.9;;
63953;SDS011;50128;52.094;5.232;2022-07-22T02:31:14;9.0;;;2.8;;
63953;SDS011;50128;52.094;5.232;2022-07-22T02:33:00;6.3;;;2.6;;
63953;SDS011;50128;52.094;5.232;2022-07-22T02:34:47;8.1;;;3.0;;
63953;SDS011;50128;52.094;5.232;2022-07-22T02:38:20;5.6;;;2.7;;
63953;SDS011;50128;52.094;5.232;2022-07-22T02:40:08;7.7;;;2.7;;
63953;SDS011;50128;52.094;5.232;2022-07-22T02:41:55;8.2;;;2.6;;
63953;SDS011;50128;52.094;5.232;2022-07-22T02:43:41;7.6;;;2.8;;
63953;SDS011;50128;52.094;5.232;2022-07-22T02:45:28;5.8;;;2.5;;
63953;SDS011;50128;52.094;5.232;2022-07-22T02:49:01;10.1;;;2.5;;
63953;SDS011;50128;52.094;5.232;2022-07-22T02:50:49;7.5;;;2.7;;
63953;SDS011;50128;52.094;5.232;2022-07-22T02:52:36;10.7;;;3.0;;
63953;SDS011;50128;52.094;5.232;2022-07-22T02:54:22;6.8;;;2.5;;
63953;SDS011;50128;52.094;5.232;2022-07-22T02:56:09;8.31;;;2.7;;
63953;SDS011;50128;52.094;5.232;2022-07-22T02:57:56;9.5;;;2.8;;
63953;SDS011;50128;52.094;5.232;2022-07-22T03:01:29;7.2;;;2.6;;
63953;SDS011;50128;52.094;5.232;2022-07-22T03:03:15;8.4;;;2.7;;
63953;SDS011;50128;52.094;5.232;2022-07-22T03:05:01;7.8;;;2.9;;
63953;SDS011;50128;52.094;5.232;2022-07-22T03:06:48;6.2;;;2.5;;
63953;SDS011;50128;52.094;5.232;2022-07-22T03:08:36;6.3;;;2.7;;
63953;SDS011;50128;52.094;5.232;2022-07-22T03:10:23;6.5;;;2.31;;
63953;SDS011;50128;52.094;5.232;2022-07-22T03:13:56;7.9;;;2.7;;
63953;SDS011;50128;52.094;5.232;2022-07-22T03:15:42;6.4;;;2.4;;
63953;SDS011;50128;52.094;5.232;2022-07-22T03:17:29;6.9;;;2.1;;
63953;SDS011;50128;52.094;5.232;2022-07-22T03:19:20;7.7;;;2.31;;
63953;SDS011;50128;52.094;5.232;2022-07-22T03:21:06;7.0;;;2.31;;
63953;SDS011;50128;52.094;5.232;2022-07-22T03:22:52;6.5;;;2.21;;
63953;SDS011;50128;52.094;5.232;2022-07-22T03:26:25;7.9;;;2.5;;
63953;SDS011;50128;52.094;5.232;2022-07-22T03:28:12;7.6;;;2.6;;
63953;SDS011;50128;52.094;5.232;2022-07-22T03:29:58;5.7;;;1.8;;
63953;SDS011;50128;52.094;5.232;2022-07-22T03:31:44;7.2;;;2.31;;
63953;SDS011;50128;52.094;5.232;2022-07-22T03:33:30;6.8;;;2.1;;
63953;SDS011;50128;52.094;5.232;2022-07-22T03:37:02;6.2;;;2.1;;
63953;SDS011;50128;52.094;5.232;2022-07-22T03:38:49;5.8;;;2.31;;
63953;SDS011;50128;52.094;5.232;2022-07-22T03:40:35;6.9;;;2.4;;
63953;SDS011;50128;52.094;5.232;2022-07-22T03:42:21;5.5;;;2.31;;
63953;SDS011;50128;52.094;5.232;2022-07-22T03:44:07;6.6;;;2.4;;
63953;SDS011;50128;52.094;5.232;2022-07-22T03:45:53;7.2;;;2.5;;
63953;SDS011;50128;52.094;5.232;2022-07-22T03:49:29;7.9;;;2.7;;
63953;SDS011;50128;52.094;5.232;2022-07-22T03:51:17;6.6;;;2.4;;
63953;SDS011;50128;52.094;5.232;2022-07-22T03:53:03;7.1;;;2.9;;
63953;SDS011;50128;52.094;5.232;2022-07-22T03:54:49;6.0;;;2.5;;
63953;SDS011;50128;52.094;5.232;2022-07-22T03:56:36;7.2;;;2.6;;
63953;SDS011;50128;52.094;5.232;2022-07-22T04:00:09;6.6;;;2.8;;
63953;SDS011;50128;52.094;5.232;2022-07-22T04:01:56;6.7;;;2.6;;
63953;SDS011;50128;52.094;5.232;2022-07-22T04:03:42;6.1;;;2.5;;
63953;SDS011;50128;52.094;5.232;2022-07-22T04:05:28;5.7;;;2.21;;
63953;SDS011;50128;52.094;5.232;2022-07-22T04:07:14;5.8;;;2.31;;
63953;SDS011;50128;52.094;5.232;2022-07-22T04:09:01;8.1;;;2.4;;
63953;SDS011;50128;52.094;5.232;2022-07-22T04:12:35;7.4;;;2.31;;
63953;SDS011;50128;52.094;5.232;2022-07-22T04:14:24;5.6;;;2.1;;
63953;SDS011;50128;52.094;5.232;2022-07-22T04:16:10;5.3;;;1.8;;
63953;SDS011;50128;52.094;5.232;2022-07-22T04:17:56;4.3;;;1.9;;
63953;SDS011;50128;52.094;5.232;2022-07-22T04:19:43;5.6;;;1.7;;
63953;SDS011;50128;52.094;5.232;2022-07-22T04:21:29;4.61;;;1.7;;
63953;SDS011;50128;52.094;5.232;2022-07-22T04:25:04;5.4;;;1.9;;
63953;SDS011;50128;52.094;5.232;2022-07-22T04:26:51;4.41;;;1.6;;
63953;SDS011;50128;52.094;5.232;2022-07-22T04:28:37;3.6;;;1.2;;
63953;SDS011;50128;52.094;5.232;2022-07-22T04:30:23;5.7;;;1.5;;
63953;SDS011;50128;52.094;5.232;2022-07-22T04:32:09;5.0;;;1.6;;
63953;SDS011;50128;52.094;5.232;2022-07-22T04:35:44;3.6;;;1.4;;
63953;SDS011;50128;52.094;5.232;2022-07-22T04:37:30;5.4;;;1.8;;
63953;SDS011;50128;52.094;5.232;2022-07-22T04:39:18;4.61;;;1.5;;
63953;SDS011;50128;52.094;5.232;2022-07-22T04:41:04;4.3;;;1.5;;
63953;SDS011;50128;52.094;5.232;2022-07-22T04:42:51;5.11;;;1.6;;
63953;SDS011;50128;52.094;5.232;2022-07-22T04:44:37;4.3;;;1.5;;
63953;SDS011;50128;52.094;5.232;2022-07-22T04:48:11;5.11;;;1.3;;
63953;SDS011;50128;52.094;5.232;2022-07-22T04:49:57;3.9;;;1.4;;
63953;SDS011;50128;52.094;5.232;2022-07-22T04:51:43;4.61;;;1.7;;
63953;SDS011;50128;52.094;5.232;2022-07-22T04:53:30;4.3;;;1.4;;
63953;SDS011;50128;52.094;5.232;2022-07-22T04:55:16;4.2;;;1.2;;
63953;SDS011;50128;52.094;5.232;2022-07-22T04:57:03;4.91;;;1.5;;
63953;SDS011;50128;52.094;5.232;2022-07-22T05:00:38;4.1;;;1.5;;
63953;SDS011;50128;52.094;5.232;2022-07-22T05:02:24;5.11;;;1.7;;
63953;SDS011;50128;52.094;5.232;2022-07-22T05:04:10;5.9;;;1.5;;
63953;SDS011;50128;52.094;5.232;2022-07-22T05:05:57;4.3;;;1.5;;
63953;SDS011;50128;52.094;5.232;2022-07-22T05:07:45;4.3;;;1.5;;
63953;SDS011;50128;52.094;5.232;2022-07-22T05:11:18;4.3;;;1.4;;
63953;SDS011;50128;52.094;5.232;2022-07-22T05:13:04;5.2;;;1.7;;
63953;SDS011;50128;52.094;5.232;2022-07-22T05:14:51;4.61;;;1.7;;
63953;SDS011;50128;52.094;5.232;2022-07-22T05:16:37;5.6;;;1.7;;
63953;SDS011;50128;52.094;5.232;2022-07-22T05:18:25;5.6;;;1.7;;
63953;SDS011;50128;52.094;5.232;2022-07-22T05:20:11;6.6;;;2.0;;
63953;SDS011;50128;52.094;5.232;2022-07-22T05:23:44;6.5;;;1.6;;
63953;SDS011;50128;52.094;5.232;2022-07-22T05:25:30;3.9;;;1.5;;
63953;SDS011;50128;52.094;5.232;2022-07-22T05:27:18;6.2;;;1.5;;
63953;SDS011;50128;52.094;5.232;2022-07-22T05:29:05;4.1;;;1.4;;
63953;SDS011;50128;52.094;5.232;2022-07-22T05:30:52;4.8;;;1.6;;
63953;SDS011;50128;52.094;5.232;2022-07-22T05:32:38;4.8;;;1.6;;
63953;SDS011;50128;52.094;5.232;2022-07-22T05:36:10;6.1;;;1.8;;
63953;SDS011;50128;52.094;5.232;2022-07-22T05:37:58;5.11;;;1.7;;
63953;SDS011;50128;52.094;5.232;2022-07-22T05:39:45;4.91;;;1.6;;
63953;SDS011;50128;52.094;5.232;2022-07-22T05:41:32;4.91;;;1.8;;
63953;SDS011;50128;52.094;5.232;2022-07-22T05:43:18;4.0;;;1.4;;
63953;SDS011;50128;52.094;5.232;2022-07-22T05:46:53;4.2;;;1.5;;
63953;SDS011;50128;52.094;5.232;2022-07-22T05:48:40;5.7;;;1.7;;
63953;SDS011;50128;52.094;5.232;2022-07-22T05:50:27;4.8;;;1.5;;
63953;SDS011;50128;52.094;5.232;2022-07-22T05:52:14;4.91;;;1.4;;
63953;SDS011;50128;52.094;5.232;2022-07-22T05:54:02;4.41;;;1.4;;
63953;SDS011;50128;52.094;5.232;2022-07-22T05:55:49;3.4;;;1.4;;
63953;SDS011;50128;52.094;5.232;2022-07-22T05:59:22;5.3;;;1.6;;
63953;SDS011;50128;52.094;5.232;2022-07-22T06:01:08;4.5;;;1.3;;
63953;SDS011;50128;52.094;5.232;2022-07-22T06:02:56;4.0;;;1.5;;
63953;SDS011;50128;52.094;5.232;2022-07-22T06:04:42;5.9;;;1.6;;
63953;SDS011;50128;52.094;5.232;2022-07-22T06:06:28;5.3;;;1.4;;
63953;SDS011;50128;52.094;5.232;2022-07-22T06:08:14;5.4;;;1.3;;
63953;SDS011;50128;52.094;5.232;2022-07-22T06:11:47;4.3;;;1.5;;
63953;SDS011;50128;52.094;5.232;2022-07-22T06:13:33;4.91;;;1.6;;
63953;SDS011;50128;52.094;5.232;2022-07-22T06:15:20;5.8;;;1.2;;
63953;SDS011;50128;52.094;5.232;2022-07-22T06:17:06;3.8;;;1.3;;
63953;SDS011;50128;52.094;5.232;2022-07-22T06:18:52;5.4;;;1.5;;
63953;SDS011;50128;52.094;5.232;2022-07-22T06:22:26;4.61;;;1.3;;
63953;SDS011;50128;52.094;5.232;2022-07-22T06:24:12;4.41;;;1.2;;
63953;SDS011;50128;52.094;5.232;2022-07-22T06:25:58;4.41;;;1.2;;
63953;SDS011;50128;52.094;5.232;2022-07-22T06:27:44;4.61;;;1.3;;
63953;SDS011;50128;52.094;5.232;2022-07-22T06:29:30;5.0;;;1.5;;
63953;SDS011;50128;52.094;5.232;2022-07-22T06:31:18;3.3;;;1.0;;
63953;SDS011;50128;52.094;5.232;2022-07-22T06:34:50;3.5;;;1.11;;
63953;SDS011;50128;52.094;5.232;2022-07-22T06:36:36;4.1;;;1.3;;
63953;SDS011;50128;52.094;5.232;2022-07-22T06:38:23;3.1;;;1.2;;
63953;SDS011;50128;52.094;5.232;2022-07-22T06:40:10;4.91;;;1.11;;
63953;SDS011;50128;52.094;5.232;2022-07-22T06:41:57;5.0;;;1.4;;
63953;SDS011;50128;52.094;5.232;2022-07-22T06:43:44;4.3;;;1.4;;
63953;SDS011;50128;52.094;5.232;2022-07-22T06:47:17;4.3;;;1.3;;
63953;SDS011;50128;52.094;5.232;2022-07-22T06:49:03;4.1;;;1.5;;
63953;SDS011;50128;52.094;5.232;2022-07-22T06:50:50;4.91;;;1.4;;
63953;SDS011;50128;52.094;5.232;2022-07-22T06:52:38;7.1;;;1.7;;
63953;SDS011;50128;52.094;5.232;2022-07-22T06:54:26;4.61;;;1.2;;
63953;SDS011;50128;52.094;5.232;2022-07-22T06:57:58;3.9;;;1.3;;
63953;SDS011;50128;52.094;5.232;2022-07-22T06:59:44;3.8;;;1.4;;
63953;SDS011;50128;52.094;5.232;2022-07-22T07:01:30;4.2;;;1.4;;
63953;SDS011;50128;52.094;5.232;2022-07-22T07:03:17;4.3;;;1.4;;
63953;SDS011;50128;52.094;5.232;2022-07-22T07:05:04;5.0;;;1.3;;
63953;SDS011;50128;52.094;5.232;2022-07-22T07:06:51;5.11;;;1.5;;
63953;SDS011;50128;52.094;5.232;2022-07-22T07:10:26;4.1;;;1.3;;
63953;SDS011;50128;52.094;5.232;2022-07-22T07:12:12;3.8;;;1.2;;
63953;SDS011;50128;52.094;5.232;2022-07-22T07:13:58;4.1;;;1.3;;
63953;SDS011;50128;52.094;5.232;2022-07-22T07:15:45;3.5;;;1.11;;
63953;SDS011;50128;52.094;5.232;2022-07-22T07:17:31;5.7;;;1.5;;
63953;SDS011;50128;52.094;5.232;2022-07-22T07:19:19;3.7;;;1.2;;
63953;SDS011;50128;52.094;5.232;2022-07-22T07:22:52;6.1;;;1.4;;
63953;SDS011;50128;52.094;5.232;2022-07-22T07:24:39;4.1;;;1.11;;
63953;SDS011;50128;52.094;5.232;2022-07-22T07:26:26;5.11;;;1.3;;
63953;SDS011;50128;52.094;5.232;2022-07-22T07:28:12;4.0;;;1.3;;
63953;SDS011;50128;52.094;5.232;2022-07-22T07:29:59;5.5;;;1.5;;
63953;SDS011;50128;52.094;5.232;2022-07-22T07:33:33;4.5;;;1.6;;
63953;SDS011;50128;52.094;5.232;2022-07-22T07:35:19;4.1;;;1.7;;
63953;SDS011;50128;52.094;5.232;2022-07-22T07:37:06;3.1;;;1.11;;
63953;SDS011;50128;52.094;5.232;2022-07-22T07:38:53;5.2;;;1.3;;
63953;SDS011;50128;52.094;5.232;2022-07-22T07:40:39;5.5;;;1.6;;
63953;SDS011;50128;52.094;5.232;2022-07-22T07:42:26;5.5;;;1.3;;
63953;SDS011;50128;52.094;5.232;2022-07-22T07:45:59;3.8;;;1.5;;
63953;SDS011;50128;52.094;5.232;2022-07-22T07:47:47;3.3;;;1.3;;
63953;SDS011;50128;52.094;5.232;2022-07-22T07:49:35;3.9;;;1.3;;
63953;SDS011;50128;52.094;5.232;2022-07-22T07:51:22;4.5;;;1.2;;
63953;SDS011;50128;52.094;5.232;2022-07-22T07:53:08;3.9;;;1.4;;
63953;SDS011;50128;52.094;5.232;2022-07-22T07:54:55;3.6;;;1.3;;
63953;SDS011;50128;52.094;5.232;2022-07-22T07:58:29;3.7;;;1.2;;
63953;SDS011;50128;52.094;5.232;2022-07-22T08:00:15;4.91;;;1.5;;
63953;SDS011;50128;52.094;5.232;2022-07-22T08:02:05;4.41;;;1.2;;
63953;SDS011;50128;52.094;5.232;2022-07-22T08:03:53;4.61;;;1.4;;
63953;SDS011;50128;52.094;5.232;2022-07-22T08:05:39;5.7;;;1.4;;
63953;SDS011;50128;52.094;5.232;2022-07-22T08:07:27;4.1;;;1.3;;
63953;SDS011;50128;52.094;5.232;2022-07-22T08:11:00;5.3;;;1.2;;
63953;SDS011;50128;52.094;5.232;2022-07-22T08:12:46;4.5;;;1.4;;
63953;SDS011;50128;52.094;5.232;2022-07-22T08:14:33;4.91;;;1.7;;
63953;SDS011;50128;52.094;5.232;2022-07-22T08:16:20;4.3;;;1.7;;
63953;SDS011;50128;52.094;5.232;2022-07-22T08:18:07;4.1;;;1.3;;
63953;SDS011;50128;52.094;5.232;2022-07-22T08:21:42;4.3;;;1.4;;
63953;SDS011;50128;52.094;5.232;2022-07-22T08:23:28;4.2;;;1.5;;
63953;SDS011;50128;52.094;5.232;2022-07-22T08:25:15;4.41;;;1.5;;
63953;SDS011;50128;52.094;5.232;2022-07-22T08:27:02;4.7;;;1.5;;
63953;SDS011;50128;52.094;5.232;2022-07-22T08:28:50;4.7;;;1.4;;
63953;SDS011;50128;52.094;5.232;2022-07-22T08:30:36;4.1;;;1.3;;
63953;SDS011;50128;52.094;5.232;2022-07-22T08:34:09;3.9;;;1.2;;
63953;SDS011;50128;52.094;5.232;2022-07-22T08:35:56;3.5;;;1.2;;
63953;SDS011;50128;52.094;5.232;2022-07-22T08:37:45;3.6;;;1.3;;
63953;SDS011;50128;52.094;5.232;2022-07-22T08:39:33;3.0;;;1.3;;
63953;SDS011;50128;52.094;5.232;2022-07-22T08:41:21;4.3;;;1.3;;
63953;SDS011;50128;52.094;5.232;2022-07-22T08:43:10;4.0;;;1.2;;
63953;SDS011;50128;52.094;5.232;2022-07-22T08:46:44;3.7;;;1.2;;
63953;SDS011;50128;52.094;5.232;2022-07-22T08:48:31;3.8;;;1.5;;
63953;SDS011;50128;52.094;5.232;2022-07-22T08:50:17;4.8;;;1.5;;
63953;SDS011;50128;52.094;5.232;2022-07-22T08:52:05;4.1;;;1.2;;
63953;SDS011;50128;52.094;5.232;2022-07-22T08:53:52;4.8;;;1.5;;
63953;SDS011;50128;52.094;5.232;2022-07-22T08:55:40;3.8;;;1.6;;
63953;SDS011;50128;52.094;5.232;2022-07-22T08:59:14;4.1;;;1.5;;
63953;SDS011;50128;52.094;5.232;2022-07-22T09:01:05;4.3;;;1.5;;
63953;SDS011;50128;52.094;5.232;2022-07-22T09:02:53;5.11;;;1.5;;
63953;SDS011;50128;52.094;5.232;2022-07-22T09:04:50;4.91;;;1.5;;
63953;SDS011;50128;52.094;5.232;2022-07-22T09:06:47;4.91;;;1.6;;
63953;SDS011;50128;52.094;5.232;2022-07-22T09:08:38;4.61;;;1.6;;
63953;SDS011;50128;52.094;5.232;2022-07-22T09:10:36;6.5;;;1.7;;
63953;SDS011;50128;52.094;5.232;2022-07-22T09:12:23;4.3;;;1.6;;
63953;SDS011;50128;52.094;5.232;2022-07-22T09:15:57;3.9;;;1.6;;
63953;SDS011;50128;52.094;5.232;2022-07-22T09:17:44;3.9;;;1.5;;
63953;SDS011;50128;52.094;5.232;2022-07-22T09:19:33;3.6;;;1.6;;
63953;SDS011;50128;52.094;5.232;2022-07-22T09:21:20;4.1;;;1.8;;
63953;SDS011;50128;52.094;5.232;2022-07-22T09:23:08;7.0;;;1.8;;
63953;SDS011;50128;52.094;5.232;2022-07-22T09:24:57;4.3;;;1.9;;
63953;SDS011;50128;52.094;5.232;2022-07-22T09:28:30;3.5;;;2.0;;
63953;SDS011;50128;52.094;5.232;2022-07-22T09:30:17;4.8;;;2.21;;
63953;SDS011;50128;52.094;5.232;2022-07-22T09:32:06;4.8;;;2.4;;
63953;SDS011;50128;52.094;5.232;2022-07-22T09:33:54;4.1;;;2.5;;
63953;SDS011;50128;52.094;5.232;2022-07-22T09:35:41;5.5;;;2.21;;
63953;SDS011;50128;52.094;5.232;2022-07-22T09:37:28;4.61;;;2.21;;
63953;SDS011;50128;52.094;5.232;2022-07-22T09:41:14;6.5;;;2.21;;
63953;SDS011;50128;52.094;5.232;2022-07-22T09:43:01;4.3;;;2.21;;
63953;SDS011;50128;52.094;5.232;2022-07-22T09:44:50;5.7;;;1.9;;
63953;SDS011;50128;52.094;5.232;2022-07-22T09:46:37;3.9;;;1.9;;
63953;SDS011;50128;52.094;5.232;2022-07-22T09:48:24;3.7;;;1.8;;
63953;SDS011;50128;52.094;5.232;2022-07-22T09:50:15;5.0;;;2.0;;
63953;SDS011;50128;52.094;5.232;2022-07-22T09:52:06;4.3;;;2.0;;
63953;SDS011;50128;52.094;5.232;2022-07-22T09:55:41;3.3;;;1.9;;
63953;SDS011;50128;52.094;5.232;2022-07-22T09:57:27;3.1;;;1.9;;
63953;SDS011;50128;52.094;5.232;2022-07-22T09:59:14;4.7;;;2.5;;
63953;SDS011;50128;52.094;5.232;2022-07-22T10:01:03;6.6;;;2.7;;
63953;SDS011;50128;52.094;5.232;2022-07-22T10:02:52;5.0;;;2.31;;
63953;SDS011;50128;52.094;5.232;2022-07-22T10:04:42;4.7;;;2.4;;
63953;SDS011;50128;52.094;5.232;2022-07-22T10:08:23;4.3;;;2.1;;
63953;SDS011;50128;52.094;5.232;2022-07-22T10:10:11;7.1;;;2.5;;
63953;SDS011;50128;52.094;5.232;2022-07-22T10:12:01;4.7;;;2.5;;
63953;SDS011;50128;52.094;5.232;2022-07-22T10:13:48;5.4;;;2.5;;
63953;SDS011;50128;52.094;5.232;2022-07-22T10:15:36;6.3;;;3.1;;
63953;SDS011;50128;52.094;5.232;2022-07-22T10:17:24;5.11;;;3.2;;
63953;SDS011;50128;52.094;5.232;2022-07-22T10:19:11;5.11;;;3.2;;
63953;SDS011;50128;52.094;5.232;2022-07-22T10:22:51;4.61;;;3.2;;
63953;SDS011;50128;52.094;5.232;2022-07-22T10:24:53;4.61;;;2.9;;
63953;SDS011;50128;52.094;5.232;2022-07-22T10:26:46;5.11;;;3.7;;
63953;SDS011;50128;52.094;5.232;2022-07-22T10:28:35;4.3;;;3.2;;
63953;SDS011;50128;52.094;5.232;2022-07-22T10:30:25;5.2;;;3.4;;
63953;SDS011;50128;52.094;5.232;2022-07-22T10:32:22;5.3;;;3.6;;
63953;SDS011;50128;52.094;5.232;2022-07-22T10:34:09;5.6;;;3.7;;
63953;SDS011;50128;52.094;5.232;2022-07-22T10:35:56;7.0;;;4.0;;
63953;SDS011;50128;52.094;5.232;2022-07-22T10:39:42;5.9;;;3.8;;
63953;SDS011;50128;52.094;5.232;2022-07-22T10:41:56;5.9;;;3.8;;
63953;SDS011;50128;52.094;5.232;2022-07-22T10:43:46;5.5;;;4.3;;
63953;SDS011;50128;52.094;5.232;2022-07-22T10:45:33;5.4;;;4.41;;
63953;SDS011;50128;52.094;5.232;2022-07-22T10:47:39;6.7;;;4.8;;
63953;SDS011;50128;52.094;5.232;2022-07-22T10:49:38;6.0;;;4.61;;
63953;SDS011;50128;52.094;5.232;2022-07-22T10:51:26;5.2;;;4.41;;
63953;SDS011;50128;52.094;5.232;2022-07-22T10:53:13;7.1;;;4.61;;
63953;SDS011;50128;52.094;5.232;2022-07-22T10:55:17;6.5;;;4.61;;
63953;SDS011;50128;52.094;5.232;2022-07-22T10:57:05;5.2;;;3.8;;
63953;SDS011;50128;52.094;5.232;2022-07-22T11:00:43;6.0;;;3.6;;
63953;SDS011;50128;52.094;5.232;2022-07-22T11:02:29;4.8;;;3.3;;
63953;SDS011;50128;52.094;5.232;2022-07-22T11:04:17;5.2;;;4.0;;
63953;SDS011;50128;52.094;5.232;2022-07-22T11:06:12;6.0;;;3.9;;
63953;SDS011;50128;52.094;5.232;2022-07-22T11:08:08;6.3;;;3.9;;
63953;SDS011;50128;52.094;5.232;2022-07-22T11:09:57;7.3;;;4.0;;
63953;SDS011;50128;52.094;5.232;2022-07-22T11:11:54;6.6;;;4.2;;
63953;SDS011;50128;52.094;5.232;2022-07-22T11:13:44;5.0;;;3.6;;
63953;SDS011;50128;52.094;5.232;2022-07-22T11:17:17;5.0;;;3.7;;
63953;SDS011;50128;52.094;5.232;2022-07-22T11:19:03;5.11;;;3.1;;
63953;SDS011;50128;52.094;5.232;2022-07-22T11:20:50;4.7;;;3.2;;
63953;SDS011;50128;52.094;5.232;2022-07-22T11:22:37;4.2;;;3.0;;
63953;SDS011;50128;52.094;5.232;2022-07-22T11:24:25;4.5;;;3.3;;
63953;SDS011;50128;52.094;5.232;2022-07-22T11:26:13;5.0;;;3.5;;
63953;SDS011;50128;52.094;5.232;2022-07-22T11:29:49;5.7;;;3.7;;
63953;SDS011;50128;52.094;5.232;2022-07-22T11:31:37;4.5;;;3.5;;
63953;SDS011;50128;52.094;5.232;2022-07-22T11:33:24;6.3;;;3.9;;
63953;SDS011;50128;52.094;5.232;2022-07-22T11:35:11;4.8;;;3.7;;
63953;SDS011;50128;52.094;5.232;2022-07-22T11:36:58;4.41;;;3.3;;
63953;SDS011;50128;52.094;5.232;2022-07-22T11:38:45;5.11;;;3.5;;
63953;SDS011;50128;52.094;5.232;2022-07-22T11:42:19;6.9;;;3.5;;
63953;SDS011;50128;52.094;5.232;2022-07-22T11:44:06;6.8;;;3.5;;
63953;SDS011;50128;52.094;5.232;2022-07-22T11:45:56;5.7;;;3.5;;
63953;SDS011;50128;52.094;5.232;2022-07-22T11:47:48;5.3;;;3.3;;
63953;SDS011;50128;52.094;5.232;2022-07-22T11:49:36;5.0;;;3.4;;
63953;SDS011;50128;52.094;5.232;2022-07-22T11:51:27;4.3;;;3.3;;
63953;SDS011;50128;52.094;5.232;2022-07-22T11:55:02;5.7;;;3.5;;
63953;SDS011;50128;52.094;5.232;2022-07-22T11:57:01;7.4;;;3.6;;
63953;SDS011;50128;52.094;5.232;2022-07-22T11:58:49;4.8;;;3.1;;
63953;SDS011;50128;52.094;5.232;2022-07-22T12:00:38;5.9;;;3.4;;
63953;SDS011;50128;52.094;5.232;2022-07-22T12:02:24;4.7;;;3.3;;
63953;SDS011;50128;52.094;5.232;2022-07-22T12:04:13;5.4;;;3.4;;
63953;SDS011;50128;52.094;5.232;2022-07-22T12:06:02;6.0;;;3.8;;
63953;SDS011;50128;52.094;5.232;2022-07-22T12:09:38;6.0;;;3.7;;
63953;SDS011;50128;52.094;5.232;2022-07-22T12:11:26;5.8;;;4.0;;
63953;SDS011;50128;52.094;5.232;2022-07-22T12:13:14;6.4;;;3.6;;
63953;SDS011;50128;52.094;5.232;2022-07-22T12:15:00;5.2;;;3.5;;
63953;SDS011;50128;52.094;5.232;2022-07-22T12:16:54;5.11;;;3.3;;
63953;SDS011;50128;52.094;5.232;2022-07-22T12:18:42;4.8;;;3.2;;
63953;SDS011;50128;52.094;5.232;2022-07-22T12:22:19;5.8;;;3.6;;
63953;SDS011;50128;52.094;5.232;2022-07-22T12:24:07;5.8;;;3.9;;
63953;SDS011;50128;52.094;5.232;2022-07-22T12:25:55;5.5;;;3.4;;
63953;SDS011;50128;52.094;5.232;2022-07-22T12:27:48;5.6;;;3.5;;
63953;SDS011;50128;52.094;5.232;2022-07-22T12:29:46;5.2;;;3.8;;
63953;SDS011;50128;52.094;5.232;2022-07-22T12:31:40;4.5;;;3.4;;
63953;SDS011;50128;52.094;5.232;2022-07-22T12:33:28;5.0;;;3.5;;
63953;SDS011;50128;52.094;5.232;2022-07-22T12:35:14;6.7;;;4.1;;
63953;SDS011;50128;52.094;5.232;2022-07-22T12:39:12;4.0;;;3.1;;
63953;SDS011;50128;52.094;5.232;2022-07-22T12:41:34;4.7;;;3.4;;
63953;SDS011;50128;52.094;5.232;2022-07-22T12:43:32;5.3;;;3.3;;
63953;SDS011;50128;52.094;5.232;2022-07-22T12:47:13;4.91;;;3.1;;
63953;SDS011;50128;52.094;5.232;2022-07-22T12:49:00;5.2;;;3.6;;
63953;SDS011;50128;52.094;5.232;2022-07-22T12:50:54;5.0;;;3.5;;
63953;SDS011;50128;52.094;5.232;2022-07-22T12:52:42;5.11;;;3.8;;
63953;SDS011;50128;52.094;5.232;2022-07-22T12:54:28;4.8;;;3.4;;
63953;SDS011;50128;52.094;5.232;2022-07-22T12:56:14;5.6;;;3.6;;
63953;SDS011;50128;52.094;5.232;2022-07-22T12:59:50;6.2;;;3.9;;